createdAt,value
2023-01-04T00:01:40.676Z,68.64
2023-01-04T00:04:09.918Z,68.59
2023-01-04T00:06:40.793Z,68.50
2023-01-04T00:09:11.674Z,68.64
2023-01-04T00:11:40.576Z,68.83
2023-01-04T00:14:12.409Z,68.72
2023-01-04T00:16:41.178Z,69.04
2023-01-04T00:19:11.358Z,69.00
2023-01-04T00:21:39.941Z,69.37
2023-01-04T00:24:09.440Z,69.76
2023-01-04T00:26:39.202Z,69.64
2023-01-04T00:29:09.933Z,70.06
2023-01-04T00:31:39.587Z,70.27
2023-01-04T00:34:09.104Z,70.44
2023-01-04T00:36:37.725Z,70.61
2023-01-04T00:39:10.664Z,70.65
2023-01-04T00:44:31.091Z,71.05
2023-01-04T00:47:00.533Z,71.05
2023-01-04T00:49:29.725Z,71.01
2023-01-04T00:51:59.239Z,71.22
2023-01-04T00:54:27.920Z,71.50
2023-01-04T00:56:56.458Z,71.71
2023-01-04T00:59:24.928Z,71.66
2023-01-04T01:01:53.719Z,71.48
2023-01-04T01:04:23.532Z,71.85
2023-01-04T01:06:52.783Z,71.71
2023-01-04T01:09:22.915Z,72.19
2023-01-04T01:11:52.579Z,72.02
2023-01-04T01:14:22.558Z,71.97
2023-01-04T01:16:57.000Z,72.16
2023-01-04T01:19:27.190Z,71.89
2023-01-04T01:21:57.424Z,72.02
2023-01-04T01:24:26.512Z,72.03
2023-01-04T01:26:57.570Z,72.19
2023-01-04T01:29:26.830Z,72.05
2023-01-04T01:31:56.840Z,72.58
2023-01-04T01:34:26.012Z,72.50
2023-01-04T01:36:59.334Z,72.68
2023-01-04T01:39:28.457Z,72.90
2023-01-04T01:41:56.966Z,73.09
2023-01-04T01:44:54.819Z,73.28
2023-01-04T01:47:25.132Z,73.18
2023-01-04T01:49:54.569Z,73.25
2023-01-04T01:52:27.047Z,74.02
2023-01-04T01:55:00.087Z,73.67
2023-01-04T01:57:30.937Z,74.09
2023-01-04T02:00:03.995Z,74.46
2023-01-04T02:02:32.616Z,74.51
2023-01-04T02:05:03.053Z,74.87
2023-01-04T02:07:31.577Z,75.37
2023-01-04T02:10:00.200Z,74.97
2023-01-04T02:12:29.768Z,74.98
2023-01-04T02:14:58.206Z,75.58
2023-01-04T02:17:35.798Z,75.74
2023-01-04T02:20:24.205Z,76.14
2023-01-04T02:23:33.127Z,76.30
2023-01-04T02:26:33.591Z,76.72
2023-01-04T02:29:19.863Z,76.27
2023-01-04T02:31:51.772Z,77.16
2023-01-04T02:34:25.923Z,77.60
2023-01-04T02:36:55.482Z,76.92
2023-01-04T02:39:37.587Z,77.44
2023-01-04T02:42:11.193Z,77.54
2023-01-04T02:44:53.000Z,77.57
2023-01-04T02:47:40.551Z,77.54
2023-01-04T02:50:31.866Z,77.16
2023-01-04T02:53:01.799Z,77.39
2023-01-04T02:55:40.449Z,77.64
2023-01-04T02:58:13.510Z,77.53
2023-01-04T03:01:11.289Z,77.24
2023-01-04T03:04:07.391Z,77.44
2023-01-04T03:06:42.161Z,77.79
2023-01-04T03:09:14.644Z,77.60
2023-01-04T03:12:03.895Z,77.81
2023-01-04T03:14:35.700Z,77.93
2023-01-04T03:17:10.949Z,78.34
2023-01-04T03:19:54.191Z,78.55
2023-01-04T03:22:48.168Z,78.33
2023-01-04T03:25:37.946Z,78.30
2023-01-04T03:28:24.788Z,78.50
2023-01-04T03:31:17.514Z,78.55
2023-01-04T03:34:05.526Z,78.12
2023-01-04T03:36:44.726Z,78.98
2023-01-04T03:39:36.494Z,78.77
2023-01-04T03:42:28.968Z,78.86
2023-01-04T03:45:24.880Z,79.36
2023-01-04T03:48:18.039Z,79.60
2023-01-04T03:50:51.790Z,79.32
2023-01-04T03:53:20.879Z,79.11
2023-01-04T03:55:49.843Z,79.23
2023-01-04T03:58:19.465Z,79.18
2023-01-04T04:00:48.625Z,79.10
2023-01-04T04:03:17.227Z,79.10
2023-01-04T04:06:04.464Z,78.77
2023-01-04T04:08:32.933Z,78.78
2023-01-04T04:11:17.896Z,79.07
2023-01-04T04:13:46.496Z,79.11
2023-01-04T04:16:15.283Z,78.82
2023-01-04T04:18:43.913Z,78.94
2023-01-04T04:21:12.470Z,79.24
2023-01-04T04:23:41.050Z,79.17
2023-01-04T04:26:09.790Z,79.13
2023-01-04T04:28:38.806Z,79.03
2023-01-04T04:31:07.229Z,79.03
2023-01-04T04:33:35.711Z,79.11
2023-01-04T04:36:04.937Z,79.10
2023-01-04T04:38:36.738Z,78.94
2023-01-04T04:41:28.138Z,78.99
2023-01-04T04:43:57.230Z,78.98
2023-01-04T04:46:25.810Z,78.93
2023-01-04T04:48:58.512Z,78.76
2023-01-04T04:51:27.167Z,78.79
2023-01-04T04:53:55.885Z,79.13
2023-01-04T04:56:25.507Z,79.03
2023-01-04T04:58:55.470Z,79.02
2023-01-04T05:01:24.329Z,78.89
2023-01-04T05:03:52.818Z,79.07
2023-01-04T05:06:21.558Z,79.14
2023-01-04T05:08:50.013Z,78.99
2023-01-04T05:11:38.511Z,79.11
2023-01-04T05:14:07.093Z,79.14
2023-01-04T05:16:36.179Z,79.01
2023-01-04T05:19:07.287Z,79.00
2023-01-04T05:21:36.017Z,79.10
2023-01-04T05:24:05.223Z,79.01
2023-01-04T05:26:36.497Z,79.17
2023-01-04T05:29:06.273Z,79.28
2023-01-04T05:31:34.786Z,79.18
2023-01-04T05:34:03.329Z,79.13
2023-01-04T05:36:32.845Z,79.04
2023-01-04T05:39:01.301Z,79.16
2023-01-04T05:41:47.833Z,79.01
2023-01-04T05:44:16.844Z,79.24
2023-01-04T05:46:45.334Z,79.42
2023-01-04T05:49:14.220Z,79.11
2023-01-04T05:51:44.357Z,79.18
2023-01-04T05:54:21.447Z,79.34
2023-01-04T05:56:50.820Z,79.29
2023-01-04T05:59:19.293Z,79.30
2023-01-04T06:01:47.862Z,79.44
2023-01-04T06:04:16.541Z,79.47
2023-01-04T06:06:44.871Z,79.59
2023-01-04T06:09:13.637Z,79.68
2023-01-04T06:11:42.045Z,79.59
2023-01-04T06:14:10.756Z,80.01
2023-01-04T06:16:39.224Z,79.91
2023-01-04T06:19:07.996Z,80.08
2023-01-04T06:21:36.722Z,80.18
2023-01-04T06:24:06.006Z,80.05
2023-01-04T06:26:34.510Z,80.43
2023-01-04T06:29:03.188Z,80.41
2023-01-04T06:31:32.998Z,80.74
2023-01-04T06:34:02.826Z,81.03
2023-01-04T06:36:31.868Z,81.03
2023-01-04T06:39:01.326Z,81.20
2023-01-04T06:41:29.889Z,81.26
2023-01-04T06:43:58.438Z,81.44
2023-01-04T06:46:29.809Z,81.60
2023-01-04T06:48:58.398Z,81.69
2023-01-04T06:51:28.998Z,81.99
2023-01-04T06:53:57.663Z,82.35
2023-01-04T06:56:26.399Z,82.42
2023-01-04T06:58:54.899Z,82.30
2023-01-04T07:01:23.419Z,82.28
2023-01-04T07:03:54.381Z,82.45
2023-01-04T07:06:22.847Z,82.32
2023-01-04T07:08:51.314Z,82.24
2023-01-04T07:11:19.740Z,82.27
2023-01-04T07:13:48.115Z,82.24
2023-01-04T07:16:16.745Z,82.21
2023-01-04T07:18:45.197Z,82.18
2023-01-04T07:21:14.065Z,82.38
2023-01-04T07:23:42.644Z,82.60
2023-01-04T07:26:10.967Z,82.61
2023-01-04T07:28:57.736Z,82.65
2023-01-04T07:31:26.857Z,82.79
2023-01-04T07:33:55.286Z,82.88
2023-01-04T07:36:23.670Z,83.16
2023-01-04T07:38:52.142Z,83.30
2023-01-04T07:41:20.544Z,83.69
2023-01-04T07:43:49.138Z,83.73
2023-01-04T07:46:17.766Z,83.98
2023-01-04T07:48:46.211Z,84.48
2023-01-04T07:51:14.593Z,84.71
2023-01-04T07:53:42.995Z,84.85
2023-01-04T07:56:15.297Z,84.82
2023-01-04T07:58:47.098Z,84.89
2023-01-04T08:01:17.740Z,84.95
2023-01-04T08:03:46.517Z,85.12
2023-01-04T08:06:16.546Z,85.08
2023-01-04T08:08:45.121Z,85.41
2023-01-04T08:11:15.083Z,85.46
2023-01-04T08:13:43.553Z,85.79
2023-01-04T08:16:21.147Z,86.22
2023-01-04T08:18:50.627Z,86.19
2023-01-04T08:21:18.995Z,85.86
2023-01-04T08:23:47.426Z,84.70
2023-01-04T08:26:16.813Z,84.33
2023-01-04T08:28:45.964Z,82.89
2023-01-04T08:31:16.412Z,81.36
2023-01-04T08:33:45.561Z,80.47
2023-01-04T08:36:26.048Z,78.81
2023-01-04T08:39:00.953Z,77.94
2023-01-04T08:44:21.241Z,76.68
2023-01-04T08:46:51.984Z,75.57
2023-01-04T08:49:21.751Z,74.86
2023-01-04T08:51:50.235Z,73.93
2023-01-04T08:54:19.040Z,73.83
2023-01-04T08:56:47.519Z,73.05
2023-01-04T08:59:15.931Z,71.68
2023-01-04T09:01:45.447Z,70.97
2023-01-04T09:04:14.273Z,70.71
2023-01-04T09:06:43.617Z,70.06
2023-01-04T09:09:11.965Z,69.32
2023-01-04T09:11:40.495Z,69.11
2023-01-04T09:14:09.971Z,68.82
2023-01-04T09:16:38.617Z,69.39
2023-01-04T09:19:21.452Z,69.46
2023-01-04T09:21:50.346Z,69.89
2023-01-04T09:24:19.438Z,70.63
2023-01-04T09:26:51.924Z,71.16
2023-01-04T09:29:20.554Z,71.64
2023-01-04T09:31:48.994Z,72.26
2023-01-04T09:34:18.172Z,72.76
2023-01-04T09:36:53.854Z,73.44
2023-01-04T09:39:24.379Z,73.72
2023-01-04T09:41:58.844Z,74.04
2023-01-04T09:47:29.299Z,74.46
2023-01-04T09:50:00.966Z,74.85
2023-01-04T09:52:40.574Z,74.83
2023-01-04T09:55:38.384Z,74.68
2023-01-04T09:58:04.284Z,74.68
2023-01-04T10:00:41.834Z,74.86
2023-01-04T10:03:15.095Z,75.04
2023-01-04T10:05:43.985Z,75.03
2023-01-04T10:08:16.663Z,75.11
2023-01-04T10:10:50.236Z,75.20
2023-01-04T10:13:34.211Z,75.28
2023-01-04T10:16:12.287Z,75.29
2023-01-04T10:21:41.707Z,75.35
2023-01-04T10:24:29.107Z,75.40
2023-01-04T10:27:02.893Z,75.35
2023-01-04T10:29:56.957Z,75.38
2023-01-04T10:32:33.844Z,75.31
2023-01-04T10:35:03.296Z,75.14
2023-01-04T10:37:34.905Z,75.02
2023-01-04T10:40:10.525Z,75.35
2023-01-04T10:42:43.802Z,75.12
2023-01-04T10:45:15.557Z,75.10
2023-01-04T10:47:52.975Z,74.99
2023-01-04T10:50:27.606Z,75.27
2023-01-04T10:53:01.502Z,75.45
2023-01-04T10:55:34.490Z,75.35
2023-01-04T10:58:06.526Z,75.73
2023-01-04T11:00:39.062Z,75.71
2023-01-04T11:03:12.564Z,75.75
2023-01-04T11:05:43.354Z,75.86
2023-01-04T11:08:16.117Z,75.99
2023-01-04T11:10:47.999Z,76.07
2023-01-04T11:13:16.362Z,76.05
2023-01-04T11:15:44.871Z,76.23
2023-01-04T11:18:13.754Z,76.35
2023-01-04T11:20:42.419Z,76.23
2023-01-04T11:23:15.633Z,76.23
2023-01-04T11:25:55.562Z,76.22
2023-01-04T11:28:29.148Z,76.30
2023-01-04T11:31:03.165Z,76.12
2023-01-04T11:33:30.995Z,76.03
2023-01-04T11:36:02.180Z,76.15
2023-01-04T11:38:31.088Z,75.85
2023-01-04T11:41:01.915Z,75.91
2023-01-04T11:43:31.689Z,75.87
2023-01-04T11:46:02.973Z,75.82
2023-01-04T11:48:42.980Z,75.79
2023-01-04T11:51:20.502Z,75.92
2023-01-04T11:53:57.806Z,75.59
2023-01-04T11:56:28.604Z,75.65
2023-01-04T11:59:05.696Z,75.80
2023-01-04T12:01:36.427Z,75.88
2023-01-04T12:04:11.048Z,75.91
2023-01-04T12:06:41.893Z,76.03
2023-01-04T12:09:15.760Z,76.21
2023-01-04T12:11:49.082Z,76.29
2023-01-04T12:14:25.867Z,76.68
2023-01-04T12:17:01.591Z,76.70
2023-01-04T12:19:30.053Z,77.02
2023-01-04T12:22:03.173Z,77.10
2023-01-04T12:24:32.949Z,77.31
2023-01-04T12:27:02.491Z,77.35
2023-01-04T12:29:57.951Z,77.68
2023-01-04T12:32:41.253Z,77.79
2023-01-04T12:36:03.456Z,77.59
2023-01-04T12:39:00.561Z,77.80
2023-01-04T12:42:15.334Z,77.83
2023-01-04T12:45:15.594Z,77.83
2023-01-04T12:48:03.950Z,77.78
2023-01-04T12:50:33.489Z,77.98
2023-01-04T12:53:28.798Z,78.09
2023-01-04T12:55:56.713Z,77.89
2023-01-04T12:59:25.738Z,77.94
2023-01-04T13:02:16.747Z,78.05
2023-01-04T13:04:45.438Z,78.14
2023-01-04T13:07:18.391Z,77.95
2023-01-04T13:09:52.499Z,77.94
2023-01-04T13:12:32.763Z,77.80
2023-01-04T13:15:06.296Z,78.04
2023-01-04T13:17:39.432Z,77.88
2023-01-04T13:20:16.952Z,78.02
2023-01-04T13:22:51.456Z,78.07
2023-01-04T13:25:21.878Z,77.89
2023-01-04T13:28:00.578Z,77.79
2023-01-04T13:30:43.401Z,77.97
2023-01-04T13:33:26.331Z,77.62
2023-01-04T13:36:01.800Z,77.83
2023-01-04T13:38:31.321Z,77.68
2023-01-04T13:41:00.344Z,77.62
2023-01-04T13:43:47.524Z,77.87
2023-01-04T13:46:17.722Z,77.75
2023-01-04T13:48:50.443Z,77.79
2023-01-04T13:51:26.947Z,77.64
2023-01-04T13:54:00.516Z,77.70
2023-01-04T13:56:31.185Z,77.82
2023-01-04T13:59:00.114Z,77.70
2023-01-04T14:01:31.913Z,77.60
2023-01-04T14:04:02.127Z,77.89
2023-01-04T14:06:33.188Z,77.60
2023-01-04T14:09:07.311Z,77.83
2023-01-04T14:12:06.054Z,77.71
2023-01-04T14:14:47.612Z,77.64
2023-01-04T14:17:25.168Z,77.79
2023-01-04T14:19:55.412Z,77.71
2023-01-04T14:22:29.357Z,77.71
2023-01-04T14:25:15.062Z,77.64
2023-01-04T14:27:43.766Z,77.78
2023-01-04T14:30:23.585Z,77.57
2023-01-04T14:32:57.043Z,77.79
2023-01-04T14:35:26.496Z,77.54
2023-01-04T14:37:55.043Z,77.36
2023-01-04T14:40:26.733Z,77.59
2023-01-04T14:42:55.576Z,77.42
2023-01-04T14:45:24.165Z,77.70
2023-01-04T14:47:53.031Z,77.32
2023-01-04T14:50:21.401Z,77.54
2023-01-04T14:52:52.173Z,77.38
2023-01-04T14:55:22.749Z,77.21
2023-01-04T14:57:51.186Z,76.90
2023-01-04T15:00:20.359Z,77.20
2023-01-04T15:02:49.285Z,77.42
2023-01-04T15:05:19.605Z,77.98
2023-01-04T15:07:48.238Z,77.90
2023-01-04T15:10:22.188Z,77.99
2023-01-04T15:12:50.999Z,78.36
2023-01-04T15:15:20.187Z,78.50
2023-01-04T15:17:49.003Z,78.74
2023-01-04T15:20:17.753Z,78.57
2023-01-04T15:22:46.097Z,78.80
2023-01-04T15:25:14.603Z,78.84
2023-01-04T15:27:43.382Z,79.29
2023-01-04T15:30:13.383Z,79.16
2023-01-04T15:32:42.024Z,79.33
2023-01-04T15:35:15.463Z,79.52
2023-01-04T15:37:44.892Z,79.80
2023-01-04T15:40:16.111Z,79.54
2023-01-04T15:43:00.419Z,80.15
2023-01-04T15:45:30.712Z,80.10
2023-01-04T15:48:02.513Z,80.07
2023-01-04T15:50:31.444Z,80.44
2023-01-04T15:52:59.870Z,80.30
2023-01-04T15:55:34.143Z,80.49
2023-01-04T15:58:05.402Z,80.72
2023-01-04T16:00:33.826Z,81.02
2023-01-04T16:03:02.308Z,80.62
2023-01-04T16:05:31.014Z,80.31
2023-01-04T16:07:59.541Z,80.54
2023-01-04T16:10:28.427Z,80.54
2023-01-04T16:12:57.485Z,80.32
2023-01-04T16:15:25.872Z,80.30
2023-01-04T16:17:55.615Z,80.55
2023-01-04T16:20:24.124Z,80.44
2023-01-04T16:22:52.646Z,81.06
2023-01-04T16:25:21.906Z,80.81
2023-01-04T16:27:50.293Z,80.93
2023-01-04T16:30:20.043Z,81.28
2023-01-04T16:32:50.835Z,81.01
2023-01-04T16:35:19.346Z,80.95
2023-01-04T16:37:47.890Z,81.13
2023-01-04T16:40:16.626Z,81.02
2023-01-04T16:42:50.466Z,80.97
2023-01-04T16:45:19.678Z,81.29
2023-01-04T16:47:49.798Z,81.20
2023-01-04T16:50:18.453Z,81.51
2023-01-04T16:52:47.081Z,81.47
2023-01-04T16:55:21.810Z,82.08
2023-01-04T16:57:52.306Z,82.36
2023-01-04T17:00:21.455Z,82.27
2023-01-04T17:02:49.933Z,82.95
2023-01-04T17:05:18.793Z,82.84
2023-01-04T17:07:47.258Z,82.79
2023-01-04T17:10:15.760Z,83.51
2023-01-04T17:12:48.084Z,82.96
2023-01-04T17:18:06.633Z,83.05
2023-01-04T17:20:37.323Z,84.06
2023-01-04T17:23:05.898Z,84.24
2023-01-04T17:25:34.513Z,84.04
2023-01-04T17:28:03.121Z,84.68
2023-01-04T17:30:31.463Z,84.51
2023-01-04T17:33:00.231Z,84.40
2023-01-04T17:35:30.572Z,84.96
2023-01-04T17:37:58.993Z,85.68
2023-01-04T17:40:27.449Z,85.35
2023-01-04T17:42:55.881Z,85.48
2023-01-04T17:45:24.358Z,85.50
2023-01-04T17:47:53.175Z,85.74
2023-01-04T17:50:21.720Z,85.96
2023-01-04T17:52:50.620Z,85.91
2023-01-04T17:55:19.232Z,86.14
2023-01-04T17:57:47.589Z,85.77
2023-01-04T18:00:16.992Z,86.02
2023-01-04T18:02:45.661Z,86.11
2023-01-04T18:05:14.320Z,86.55
2023-01-04T18:07:42.677Z,86.01
2023-01-04T18:10:26.779Z,86.13
2023-01-04T18:13:01.596Z,87.32
2023-01-04T18:15:29.935Z,87.17
2023-01-04T18:17:58.319Z,87.46
2023-01-04T18:20:26.976Z,87.61
2023-01-04T18:22:55.460Z,88.00
2023-01-04T18:25:24.333Z,87.74
2023-01-04T18:27:53.098Z,88.32
2023-01-04T18:30:21.849Z,88.47
2023-01-04T18:32:50.296Z,88.08
2023-01-04T18:35:18.880Z,87.95
2023-01-04T18:37:47.643Z,88.53
2023-01-04T18:40:16.182Z,88.22
2023-01-04T18:42:47.631Z,88.30
2023-01-04T18:45:16.443Z,88.48
2023-01-04T18:47:46.927Z,90.34
2023-01-04T18:50:15.743Z,90.30
2023-01-04T18:52:44.505Z,89.97
2023-01-04T18:55:13.092Z,90.04
2023-01-04T18:57:41.719Z,89.83
2023-01-04T19:00:12.888Z,89.85
2023-01-04T19:02:41.401Z,90.72
2023-01-04T19:05:10.947Z,90.87
2023-01-04T19:07:39.632Z,91.59
2023-01-04T19:10:09.903Z,91.24
2023-01-04T19:12:38.418Z,91.42
2023-01-04T19:15:09.738Z,91.09
2023-01-04T19:17:38.478Z,91.03
2023-01-04T19:20:08.503Z,90.93
2023-01-04T19:22:36.863Z,90.70
2023-01-04T19:25:06.841Z,90.91
2023-01-04T19:27:35.466Z,91.91
2023-01-04T19:30:04.978Z,91.51
2023-01-04T19:32:34.038Z,92.11
2023-01-04T19:35:02.579Z,91.65
2023-01-04T19:37:31.000Z,91.88
2023-01-04T19:39:59.363Z,92.13
2023-01-04T19:42:27.875Z,92.37
2023-01-04T19:44:56.190Z,93.35
2023-01-04T19:47:24.590Z,93.85
2023-01-04T19:49:53.065Z,93.17
2023-01-04T19:52:21.409Z,93.46
2023-01-04T19:54:49.811Z,93.33
2023-01-04T19:57:18.354Z,93.37
2023-01-04T19:59:46.757Z,93.48
2023-01-04T20:02:15.239Z,94.22
2023-01-04T20:04:44.070Z,93.44
2023-01-04T20:07:12.572Z,93.12
2023-01-04T20:09:41.058Z,92.91
2023-01-04T20:12:09.579Z,93.67
2023-01-04T20:14:38.790Z,93.11
2023-01-04T20:17:07.308Z,93.71
2023-01-04T20:19:35.841Z,94.42
2023-01-04T20:22:04.286Z,93.86
2023-01-04T20:24:33.550Z,94.10
2023-01-04T20:27:02.094Z,94.07
2023-01-04T20:29:31.242Z,94.41
2023-01-04T20:32:00.427Z,94.69
2023-01-04T20:34:29.110Z,95.70
2023-01-04T20:36:57.667Z,95.36
2023-01-04T20:39:26.085Z,95.03
2023-01-04T20:42:13.198Z,95.42
2023-01-04T20:44:41.588Z,95.00
2023-01-04T20:47:10.070Z,95.27
2023-01-04T20:49:38.514Z,95.61
2023-01-04T20:52:07.436Z,96.12
2023-01-04T20:54:36.165Z,95.77
2023-01-04T20:57:04.723Z,95.88
2023-01-04T20:59:33.302Z,96.05
2023-01-04T21:02:02.738Z,96.63
2023-01-04T21:04:31.580Z,96.19
2023-01-04T21:07:00.652Z,96.10
2023-01-04T21:09:29.693Z,96.05
2023-01-04T21:12:01.981Z,98.19
2023-01-04T21:14:37.491Z,97.31
2023-01-04T21:17:06.214Z,96.40
2023-01-04T21:19:34.594Z,96.61
2023-01-04T21:22:03.519Z,98.14
2023-01-04T21:24:32.933Z,97.87
2023-01-04T21:27:01.376Z,97.23
2023-01-04T21:29:30.595Z,98.36
2023-01-04T21:31:59.011Z,98.89
2023-01-04T21:34:30.782Z,98.93
2023-01-04T21:36:59.447Z,98.19
2023-01-04T21:39:27.919Z,98.65
2023-01-04T21:41:56.384Z,98.32
2023-01-04T21:44:24.839Z,97.71
2023-01-04T21:46:53.474Z,97.47
2023-01-04T21:49:22.111Z,97.69
2023-01-04T21:51:50.632Z,98.45
2023-01-04T21:54:19.048Z,98.05
2023-01-04T21:56:47.679Z,97.96
2023-01-04T21:59:16.240Z,98.27
2023-01-04T22:01:44.742Z,98.56
2023-01-04T22:04:13.220Z,98.62
2023-01-04T22:06:41.748Z,98.38
2023-01-04T22:09:10.235Z,98.45
2023-01-04T22:11:42.751Z,98.57
2023-01-04T22:14:11.176Z,98.30
2023-01-04T22:16:39.664Z,97.83
2023-01-04T22:19:08.995Z,98.20
2023-01-04T22:21:37.448Z,98.43
2023-01-04T22:24:07.289Z,98.81
2023-01-04T22:26:35.659Z,98.87
2023-01-04T22:29:04.254Z,98.87
2023-01-04T22:31:32.720Z,98.49
2023-01-04T22:34:01.181Z,98.17
2023-01-04T22:36:29.676Z,98.90
2023-01-04T22:38:58.425Z,99.69
2023-01-04T22:41:28.286Z,99.69
2023-01-04T22:43:57.587Z,99.47
2023-01-04T22:46:26.866Z,99.70
2023-01-04T22:48:55.994Z,99.41
2023-01-04T22:51:28.047Z,99.55
2023-01-04T22:53:57.315Z,99.23
2023-01-04T22:56:26.557Z,99.59
2023-01-04T22:58:56.426Z,99.33
2023-01-04T23:01:26.570Z,99.33
2023-01-04T23:03:55.601Z,99.69
2023-01-04T23:06:24.932Z,98.87
2023-01-04T23:08:58.323Z,98.73
2023-01-04T23:11:28.080Z,98.56
2023-01-04T23:13:57.302Z,98.78
2023-01-04T23:16:31.981Z,99.29
2023-01-04T23:19:01.601Z,99.41
2023-01-04T23:21:30.441Z,98.95
2023-01-04T23:23:59.221Z,98.97
2023-01-04T23:26:29.596Z,99.48
2023-01-04T23:28:58.246Z,99.82
2023-01-04T23:31:28.674Z,99.91
2023-01-04T23:33:58.971Z,99.71
2023-01-04T23:36:29.262Z,99.82
2023-01-04T23:38:59.271Z,99.78
2023-01-04T23:41:42.683Z,100.00
2023-01-04T23:44:13.161Z,100.00
2023-01-04T23:46:41.862Z,100.00
2023-01-04T23:49:10.739Z,100.00
2023-01-04T23:51:39.670Z,100.00
2023-01-04T23:54:08.471Z,99.96
2023-01-04T23:56:37.451Z,99.98
2023-01-04T23:59:06.435Z,99.95
